sensor_id;sensor_type;location;lat;lon;timestamp;P1;durP1;ratioP1;P2;durP2;ratioP2
13973;SDS011;7060;43.770;4.008;2023-05-21T00:00:03;5.90;;;1.73;;
13973;SDS011;7060;43.770;4.008;2023-05-21T00:02:39;5.23;;;1.67;;
13973;SDS011;7060;43.770;4.008;2023-05-21T00:05:08;4.70;;;1.40;;
13973;SDS011;7060;43.770;4.008;2023-05-21T00:07:40;3.03;;;1.30;;
13973;SDS011;7060;43.770;4.008;2023-05-21T00:10:10;2.63;;;1.57;;
13973;SDS011;7060;43.770;4.008;2023-05-21T00:12:39;2.73;;;1.47;;
13973;SDS011;7060;43.770;4.008;2023-05-21T00:15:08;3.60;;;1.43;;
13973;SDS011;7060;43.770;4.008;2023-05-21T00:17:37;2.67;;;1.47;;
13973;SDS011;7060;43.770;4.008;2023-05-21T00:20:06;3.90;;;1.70;;
13973;SDS011;7060;43.770;4.008;2023-05-21T00:22:35;3.93;;;2.10;;
13973;SDS011;7060;43.770;4.008;2023-05-21T00:25:04;7.20;;;1.97;;
13973;SDS011;7060;43.770;4.008;2023-05-21T00:27:34;5.57;;;2.07;;
13973;SDS011;7060;43.770;4.008;2023-05-21T00:30:03;10.30;;;2.93;;
13973;SDS011;7060;43.770;4.008;2023-05-21T00:32:32;4.97;;;2.77;;
13973;SDS011;7060;43.770;4.008;2023-05-21T00:35:01;6.90;;;2.77;;
13973;SDS011;7060;43.770;4.008;2023-05-21T00:37:29;5.33;;;2.77;;
13973;SDS011;7060;43.770;4.008;2023-05-21T00:40:00;2.70;;;1.90;;
13973;SDS011;7060;43.770;4.008;2023-05-21T00:42:30;3.83;;;1.70;;
13973;SDS011;7060;43.770;4.008;2023-05-21T00:45:00;5.03;;;2.27;;
13973;SDS011;7060;43.770;4.008;2023-05-21T00:47:30;2.37;;;1.60;;
13973;SDS011;7060;43.770;4.008;2023-05-21T00:49:58;3.97;;;1.93;;
13973;SDS011;7060;43.770;4.008;2023-05-21T00:52:29;3.17;;;1.77;;
13973;SDS011;7060;43.770;4.008;2023-05-21T00:54:58;1.93;;;1.60;;
13973;SDS011;7060;43.770;4.008;2023-05-21T00:57:27;1.70;;;1.60;;
13973;SDS011;7060;43.770;4.008;2023-05-21T00:59:55;2.47;;;1.30;;
13973;SDS011;7060;43.770;4.008;2023-05-21T01:02:25;5.13;;;1.77;;
13973;SDS011;7060;43.770;4.008;2023-05-21T01:04:54;1.87;;;1.30;;
13973;SDS011;7060;43.770;4.008;2023-05-21T01:07:22;2.20;;;1.30;;
13973;SDS011;7060;43.770;4.008;2023-05-21T01:09:51;3.27;;;1.40;;
13973;SDS011;7060;43.770;4.008;2023-05-21T01:12:20;4.50;;;1.83;;
13973;SDS011;7060;43.770;4.008;2023-05-21T01:14:50;2.43;;;2.23;;
13973;SDS011;7060;43.770;4.008;2023-05-21T01:17:20;1.73;;;1.10;;
13973;SDS011;7060;43.770;4.008;2023-05-21T01:19:51;1.40;;;1.30;;
13973;SDS011;7060;43.770;4.008;2023-05-21T01:22:20;1.73;;;1.50;;
13973;SDS011;7060;43.770;4.008;2023-05-21T01:24:52;2.03;;;1.40;;
13973;SDS011;7060;43.770;4.008;2023-05-21T01:27:21;1.90;;;1.10;;
13973;SDS011;7060;43.770;4.008;2023-05-21T01:29:50;3.60;;;1.30;;
13973;SDS011;7060;43.770;4.008;2023-05-21T01:32:22;1.30;;;1.17;;
13973;SDS011;7060;43.770;4.008;2023-05-21T01:34:58;2.80;;;1.43;;
13973;SDS011;7060;43.770;4.008;2023-05-21T01:37:33;1.93;;;1.37;;
13973;SDS011;7060;43.770;4.008;2023-05-21T01:40:07;3.33;;;2.03;;
13973;SDS011;7060;43.770;4.008;2023-05-21T01:42:40;3.10;;;1.70;;
13973;SDS011;7060;43.770;4.008;2023-05-21T01:45:11;5.40;;;1.67;;
13973;SDS011;7060;43.770;4.008;2023-05-21T01:47:43;5.77;;;1.40;;
13973;SDS011;7060;43.770;4.008;2023-05-21T01:50:14;4.27;;;1.53;;
13973;SDS011;7060;43.770;4.008;2023-05-21T01:52:48;4.47;;;1.60;;
13973;SDS011;7060;43.770;4.008;2023-05-21T01:55:19;1.70;;;1.37;;
13973;SDS011;7060;43.770;4.008;2023-05-21T01:57:58;1.57;;;1.43;;
13973;SDS011;7060;43.770;4.008;2023-05-21T02:00:28;2.10;;;1.67;;
13973;SDS011;7060;43.770;4.008;2023-05-21T02:02:58;1.77;;;1.43;;
13973;SDS011;7060;43.770;4.008;2023-05-21T02:05:27;2.17;;;1.50;;
13973;SDS011;7060;43.770;4.008;2023-05-21T02:07:56;2.87;;;1.57;;
13973;SDS011;7060;43.770;4.008;2023-05-21T02:10:27;1.47;;;1.27;;
13973;SDS011;7060;43.770;4.008;2023-05-21T02:12:55;2.93;;;1.60;;
13973;SDS011;7060;43.770;4.008;2023-05-21T02:15:24;1.60;;;1.50;;
13973;SDS011;7060;43.770;4.008;2023-05-21T02:17:53;4.57;;;2.00;;
13973;SDS011;7060;43.770;4.008;2023-05-21T02:20:22;2.23;;;1.50;;
13973;SDS011;7060;43.770;4.008;2023-05-21T02:22:50;2.63;;;1.50;;
13973;SDS011;7060;43.770;4.008;2023-05-21T02:25:19;2.80;;;1.53;;
13973;SDS011;7060;43.770;4.008;2023-05-21T02:27:50;3.03;;;1.40;;
13973;SDS011;7060;43.770;4.008;2023-05-21T02:30:19;3.80;;;1.37;;
13973;SDS011;7060;43.770;4.008;2023-05-21T02:32:48;2.00;;;1.60;;
13973;SDS011;7060;43.770;4.008;2023-05-21T02:35:16;2.50;;;1.60;;
13973;SDS011;7060;43.770;4.008;2023-05-21T02:37:45;2.77;;;1.50;;
13973;SDS011;7060;43.770;4.008;2023-05-21T02:40:14;3.20;;;1.40;;
13973;SDS011;7060;43.770;4.008;2023-05-21T02:42:43;1.77;;;1.47;;
13973;SDS011;7060;43.770;4.008;2023-05-21T02:45:17;1.63;;;1.37;;
13973;SDS011;7060;43.770;4.008;2023-05-21T02:47:46;4.13;;;2.30;;
13973;SDS011;7060;43.770;4.008;2023-05-21T02:50:17;1.80;;;1.40;;
13973;SDS011;7060;43.770;4.008;2023-05-21T02:52:56;1.40;;;1.30;;
13973;SDS011;7060;43.770;4.008;2023-05-21T02:55:27;1.77;;;1.33;;
13973;SDS011;7060;43.770;4.008;2023-05-21T02:57:55;1.93;;;1.30;;
13973;SDS011;7060;43.770;4.008;2023-05-21T03:00:25;3.07;;;1.50;;
13973;SDS011;7060;43.770;4.008;2023-05-21T03:02:53;3.23;;;1.40;;
13973;SDS011;7060;43.770;4.008;2023-05-21T03:05:23;2.47;;;1.80;;
13973;SDS011;7060;43.770;4.008;2023-05-21T03:07:52;3.13;;;1.47;;
13973;SDS011;7060;43.770;4.008;2023-05-21T03:10:20;1.97;;;1.70;;
13973;SDS011;7060;43.770;4.008;2023-05-21T03:12:48;1.90;;;1.60;;
13973;SDS011;7060;43.770;4.008;2023-05-21T03:15:19;2.33;;;1.83;;
13973;SDS011;7060;43.770;4.008;2023-05-21T03:17:51;1.87;;;1.57;;
13973;SDS011;7060;43.770;4.008;2023-05-21T03:20:22;1.63;;;1.43;;
13973;SDS011;7060;43.770;4.008;2023-05-21T03:22:50;3.67;;;1.53;;
13973;SDS011;7060;43.770;4.008;2023-05-21T03:25:21;2.57;;;1.50;;
13973;SDS011;7060;43.770;4.008;2023-05-21T03:27:52;3.63;;;1.60;;
13973;SDS011;7060;43.770;4.008;2023-05-21T03:30:43;5.50;;;1.90;;
13973;SDS011;7060;43.770;4.008;2023-05-21T03:33:31;5.60;;;2.13;;
13973;SDS011;7060;43.770;4.008;2023-05-21T03:36:09;3.43;;;1.60;;
13973;SDS011;7060;43.770;4.008;2023-05-21T03:38:38;2.00;;;1.80;;
13973;SDS011;7060;43.770;4.008;2023-05-21T03:41:09;3.43;;;1.70;;
13973;SDS011;7060;43.770;4.008;2023-05-21T03:43:40;3.07;;;1.93;;
13973;SDS011;7060;43.770;4.008;2023-05-21T03:46:09;4.50;;;1.30;;
13973;SDS011;7060;43.770;4.008;2023-05-21T03:49:02;2.00;;;1.60;;
13973;SDS011;7060;43.770;4.008;2023-05-21T03:51:33;2.63;;;1.37;;
13973;SDS011;7060;43.770;4.008;2023-05-21T03:54:01;1.50;;;1.40;;
13973;SDS011;7060;43.770;4.008;2023-05-21T03:56:30;1.87;;;1.40;;
13973;SDS011;7060;43.770;4.008;2023-05-21T03:58:59;1.77;;;1.67;;
13973;SDS011;7060;43.770;4.008;2023-05-21T04:01:28;1.70;;;1.60;;
13973;SDS011;7060;43.770;4.008;2023-05-21T04:04:02;1.97;;;1.40;;
13973;SDS011;7060;43.770;4.008;2023-05-21T04:06:31;1.83;;;1.30;;
13973;SDS011;7060;43.770;4.008;2023-05-21T04:09:00;1.90;;;1.50;;
13973;SDS011;7060;43.770;4.008;2023-05-21T04:11:28;1.87;;;1.63;;
13973;SDS011;7060;43.770;4.008;2023-05-21T04:13:57;3.27;;;1.60;;
13973;SDS011;7060;43.770;4.008;2023-05-21T04:16:25;1.73;;;1.53;;
13973;SDS011;7060;43.770;4.008;2023-05-21T04:18:53;2.17;;;1.40;;
13973;SDS011;7060;43.770;4.008;2023-05-21T04:21:26;4.13;;;1.73;;
13973;SDS011;7060;43.770;4.008;2023-05-21T04:23:55;3.90;;;2.20;;
13973;SDS011;7060;43.770;4.008;2023-05-21T04:26:41;4.73;;;2.17;;
13973;SDS011;7060;43.770;4.008;2023-05-21T04:29:10;5.07;;;2.17;;
13973;SDS011;7060;43.770;4.008;2023-05-21T04:31:38;3.07;;;2.10;;
13973;SDS011;7060;43.770;4.008;2023-05-21T04:34:07;2.10;;;1.80;;
13973;SDS011;7060;43.770;4.008;2023-05-21T04:36:38;3.40;;;1.70;;
13973;SDS011;7060;43.770;4.008;2023-05-21T04:39:07;3.30;;;1.90;;
13973;SDS011;7060;43.770;4.008;2023-05-21T04:41:37;2.87;;;1.80;;
13973;SDS011;7060;43.770;4.008;2023-05-21T04:44:05;3.90;;;1.80;;
13973;SDS011;7060;43.770;4.008;2023-05-21T04:46:35;2.13;;;1.50;;
13973;SDS011;7060;43.770;4.008;2023-05-21T04:49:08;3.30;;;1.70;;
13973;SDS011;7060;43.770;4.008;2023-05-21T04:51:39;4.13;;;1.90;;
13973;SDS011;7060;43.770;4.008;2023-05-21T04:54:07;5.40;;;1.97;;
13973;SDS011;7060;43.770;4.008;2023-05-21T04:56:36;2.07;;;1.53;;
13973;SDS011;7060;43.770;4.008;2023-05-21T04:59:04;1.80;;;1.60;;
13973;SDS011;7060;43.770;4.008;2023-05-21T05:01:33;4.93;;;1.73;;
13973;SDS011;7060;43.770;4.008;2023-05-21T05:04:04;4.40;;;1.77;;
13973;SDS011;7060;43.770;4.008;2023-05-21T05:06:33;2.40;;;1.43;;
13973;SDS011;7060;43.770;4.008;2023-05-21T05:09:03;2.20;;;1.93;;
13973;SDS011;7060;43.770;4.008;2023-05-21T05:11:31;2.53;;;2.03;;
13973;SDS011;7060;43.770;4.008;2023-05-21T05:14:00;2.50;;;1.87;;
13973;SDS011;7060;43.770;4.008;2023-05-21T05:16:28;3.30;;;1.83;;
13973;SDS011;7060;43.770;4.008;2023-05-21T05:18:57;2.63;;;2.00;;
13973;SDS011;7060;43.770;4.008;2023-05-21T05:21:26;3.53;;;2.17;;
13973;SDS011;7060;43.770;4.008;2023-05-21T05:23:55;2.43;;;2.23;;
13973;SDS011;7060;43.770;4.008;2023-05-21T05:26:28;3.53;;;1.87;;
13973;SDS011;7060;43.770;4.008;2023-05-21T05:28:56;3.57;;;2.03;;
13973;SDS011;7060;43.770;4.008;2023-05-21T05:31:25;1.97;;;1.77;;
13973;SDS011;7060;43.770;4.008;2023-05-21T05:33:53;1.77;;;1.67;;
13973;SDS011;7060;43.770;4.008;2023-05-21T05:36:23;2.07;;;1.83;;
13973;SDS011;7060;43.770;4.008;2023-05-21T05:38:51;7.17;;;2.53;;
13973;SDS011;7060;43.770;4.008;2023-05-21T05:41:21;1.93;;;1.83;;
13973;SDS011;7060;43.770;4.008;2023-05-21T05:43:51;5.37;;;1.50;;
13973;SDS011;7060;43.770;4.008;2023-05-21T05:46:24;3.30;;;2.13;;
13973;SDS011;7060;43.770;4.008;2023-05-21T05:48:52;2.07;;;1.87;;
13973;SDS011;7060;43.770;4.008;2023-05-21T05:51:21;1.73;;;1.60;;
13973;SDS011;7060;43.770;4.008;2023-05-21T05:53:49;2.20;;;2.00;;
13973;SDS011;7060;43.770;4.008;2023-05-21T05:56:19;3.07;;;1.87;;
13973;SDS011;7060;43.770;4.008;2023-05-21T05:58:48;2.70;;;1.87;;
13973;SDS011;7060;43.770;4.008;2023-05-21T06:01:18;2.17;;;1.60;;
13973;SDS011;7060;43.770;4.008;2023-05-21T06:03:50;2.23;;;1.80;;
13973;SDS011;7060;43.770;4.008;2023-05-21T06:06:19;2.10;;;1.90;;
13973;SDS011;7060;43.770;4.008;2023-05-21T06:08:48;3.27;;;1.60;;
13973;SDS011;7060;43.770;4.008;2023-05-21T06:11:17;2.37;;;2.17;;
13973;SDS011;7060;43.770;4.008;2023-05-21T06:13:47;3.17;;;2.27;;
13973;SDS011;7060;43.770;4.008;2023-05-21T06:16:16;3.73;;;2.40;;
13973;SDS011;7060;43.770;4.008;2023-05-21T06:18:47;2.30;;;2.10;;
13973;SDS011;7060;43.770;4.008;2023-05-21T06:21:15;2.80;;;2.37;;
13973;SDS011;7060;43.770;4.008;2023-05-21T06:23:44;3.03;;;2.37;;
13973;SDS011;7060;43.770;4.008;2023-05-21T06:26:12;4.37;;;2.27;;
13973;SDS011;7060;43.770;4.008;2023-05-21T06:28:41;2.67;;;2.17;;
13973;SDS011;7060;43.770;4.008;2023-05-21T06:31:09;2.17;;;1.93;;
13973;SDS011;7060;43.770;4.008;2023-05-21T06:33:41;4.90;;;2.10;;
13973;SDS011;7060;43.770;4.008;2023-05-21T06:36:11;5.50;;;2.23;;
13973;SDS011;7060;43.770;4.008;2023-05-21T06:38:39;2.90;;;2.67;;
13973;SDS011;7060;43.770;4.008;2023-05-21T06:41:08;5.00;;;2.30;;
13973;SDS011;7060;43.770;4.008;2023-05-21T06:43:57;3.20;;;1.83;;
13973;SDS011;7060;43.770;4.008;2023-05-21T06:46:44;3.20;;;2.03;;
13973;SDS011;7060;43.770;4.008;2023-05-21T06:49:12;2.27;;;2.07;;
13973;SDS011;7060;43.770;4.008;2023-05-21T06:51:43;6.77;;;2.67;;
13973;SDS011;7060;43.770;4.008;2023-05-21T06:54:13;6.80;;;2.30;;
13973;SDS011;7060;43.770;4.008;2023-05-21T06:56:42;2.20;;;2.00;;
13973;SDS011;7060;43.770;4.008;2023-05-21T06:59:12;2.30;;;2.10;;
13973;SDS011;7060;43.770;4.008;2023-05-21T07:01:41;3.23;;;2.00;;
13973;SDS011;7060;43.770;4.008;2023-05-21T07:04:11;3.10;;;2.33;;
13973;SDS011;7060;43.770;4.008;2023-05-21T07:06:44;4.57;;;2.80;;
13973;SDS011;7060;43.770;4.008;2023-05-21T07:09:12;2.80;;;2.53;;
13973;SDS011;7060;43.770;4.008;2023-05-21T07:11:41;5.37;;;2.40;;
13973;SDS011;7060;43.770;4.008;2023-05-21T07:14:12;3.73;;;2.30;;
13973;SDS011;7060;43.770;4.008;2023-05-21T07:16:41;2.10;;;1.90;;
13973;SDS011;7060;43.770;4.008;2023-05-21T07:19:09;3.97;;;2.30;;
13973;SDS011;7060;43.770;4.008;2023-05-21T07:21:38;5.90;;;3.17;;
13973;SDS011;7060;43.770;4.008;2023-05-21T07:24:08;2.83;;;2.30;;
13973;SDS011;7060;43.770;4.008;2023-05-21T07:26:38;2.63;;;2.43;;
13973;SDS011;7060;43.770;4.008;2023-05-21T07:29:08;2.80;;;2.60;;
13973;SDS011;7060;43.770;4.008;2023-05-21T07:31:37;3.13;;;2.30;;
13973;SDS011;7060;43.770;4.008;2023-05-21T07:34:06;3.80;;;2.40;;
13973;SDS011;7060;43.770;4.008;2023-05-21T07:36:35;4.63;;;2.07;;
13973;SDS011;7060;43.770;4.008;2023-05-21T07:39:04;3.33;;;2.80;;
13973;SDS011;7060;43.770;4.008;2023-05-21T07:41:34;2.73;;;2.53;;
13973;SDS011;7060;43.770;4.008;2023-05-21T07:44:06;3.30;;;2.80;;
13973;SDS011;7060;43.770;4.008;2023-05-21T07:46:38;2.70;;;2.50;;
13973;SDS011;7060;43.770;4.008;2023-05-21T07:49:08;4.80;;;2.50;;
13973;SDS011;7060;43.770;4.008;2023-05-21T07:51:44;5.40;;;2.83;;
13973;SDS011;7060;43.770;4.008;2023-05-21T07:54:14;4.60;;;2.90;;
13973;SDS011;7060;43.770;4.008;2023-05-21T07:56:45;3.67;;;2.50;;
13973;SDS011;7060;43.770;4.008;2023-05-21T07:59:27;5.50;;;2.37;;
13973;SDS011;7060;43.770;4.008;2023-05-21T08:01:56;5.00;;;2.50;;
13973;SDS011;7060;43.770;4.008;2023-05-21T08:04:24;8.43;;;3.03;;
13973;SDS011;7060;43.770;4.008;2023-05-21T08:06:53;2.57;;;2.37;;
13973;SDS011;7060;43.770;4.008;2023-05-21T08:09:23;4.30;;;2.57;;
13973;SDS011;7060;43.770;4.008;2023-05-21T08:11:53;4.00;;;3.67;;
13973;SDS011;7060;43.770;4.008;2023-05-21T08:14:22;4.70;;;2.77;;
13973;SDS011;7060;43.770;4.008;2023-05-21T08:16:51;3.83;;;2.50;;
13973;SDS011;7060;43.770;4.008;2023-05-21T08:19:20;4.73;;;2.83;;
13973;SDS011;7060;43.770;4.008;2023-05-21T08:21:49;2.40;;;2.20;;
13973;SDS011;7060;43.770;4.008;2023-05-21T08:24:20;4.53;;;2.60;;
13973;SDS011;7060;43.770;4.008;2023-05-21T08:26:50;2.73;;;2.20;;
13973;SDS011;7060;43.770;4.008;2023-05-21T08:29:20;10.80;;;2.60;;
13973;SDS011;7060;43.770;4.008;2023-05-21T08:31:48;3.20;;;2.90;;
13973;SDS011;7060;43.770;4.008;2023-05-21T08:34:17;2.60;;;2.40;;
13973;SDS011;7060;43.770;4.008;2023-05-21T08:36:55;2.83;;;2.43;;
13973;SDS011;7060;43.770;4.008;2023-05-21T08:39:50;3.93;;;2.37;;
13973;SDS011;7060;43.770;4.008;2023-05-21T08:42:23;4.10;;;1.97;;
13973;SDS011;7060;43.770;4.008;2023-05-21T08:45:06;2.77;;;2.13;;
13973;SDS011;7060;43.770;4.008;2023-05-21T08:47:39;2.43;;;2.23;;
13973;SDS011;7060;43.770;4.008;2023-05-21T08:50:10;2.83;;;2.03;;
13973;SDS011;7060;43.770;4.008;2023-05-21T08:52:44;3.17;;;2.40;;
13973;SDS011;7060;43.770;4.008;2023-05-21T08:55:13;2.70;;;2.50;;
13973;SDS011;7060;43.770;4.008;2023-05-21T08:57:43;2.80;;;2.33;;
13973;SDS011;7060;43.770;4.008;2023-05-21T09:00:16;2.53;;;2.33;;
13973;SDS011;7060;43.770;4.008;2023-05-21T09:02:46;3.33;;;2.07;;
13973;SDS011;7060;43.770;4.008;2023-05-21T09:05:17;2.60;;;2.20;;
13973;SDS011;7060;43.770;4.008;2023-05-21T09:07:47;2.10;;;1.90;;
13973;SDS011;7060;43.770;4.008;2023-05-21T09:10:45;2.57;;;2.23;;
13973;SDS011;7060;43.770;4.008;2023-05-21T09:13:17;2.03;;;1.60;;
13973;SDS011;7060;43.770;4.008;2023-05-21T09:15:50;1.40;;;1.30;;
13973;SDS011;7060;43.770;4.008;2023-05-21T09:18:20;6.03;;;2.20;;
13973;SDS011;7060;43.770;4.008;2023-05-21T09:21:24;1.30;;;1.20;;
13973;SDS011;7060;43.770;4.008;2023-05-21T09:23:58;1.40;;;1.30;;
13973;SDS011;7060;43.770;4.008;2023-05-21T09:26:28;3.43;;;1.40;;
13973;SDS011;7060;43.770;4.008;2023-05-21T09:29:01;2.77;;;1.17;;
13973;SDS011;7060;43.770;4.008;2023-05-21T09:31:31;1.70;;;1.47;;
13973;SDS011;7060;43.770;4.008;2023-05-21T09:34:00;1.50;;;1.40;;
13973;SDS011;7060;43.770;4.008;2023-05-21T09:36:30;1.87;;;1.67;;
13973;SDS011;7060;43.770;4.008;2023-05-21T09:39:00;3.67;;;1.10;;
13973;SDS011;7060;43.770;4.008;2023-05-21T09:41:32;1.53;;;1.03;;
13973;SDS011;7060;43.770;4.008;2023-05-21T09:44:03;4.17;;;0.90;;
13973;SDS011;7060;43.770;4.008;2023-05-21T09:46:38;3.13;;;1.80;;
13973;SDS011;7060;43.770;4.008;2023-05-21T09:49:21;1.30;;;1.00;;
13973;SDS011;7060;43.770;4.008;2023-05-21T09:51:55;1.30;;;1.20;;
13973;SDS011;7060;43.770;4.008;2023-05-21T09:54:24;1.10;;;1.00;;
13973;SDS011;7060;43.770;4.008;2023-05-21T09:56:59;1.47;;;1.37;;
13973;SDS011;7060;43.770;4.008;2023-05-21T09:59:34;1.50;;;1.10;;
13973;SDS011;7060;43.770;4.008;2023-05-21T10:02:15;1.23;;;0.80;;
13973;SDS011;7060;43.770;4.008;2023-05-21T10:04:48;0.90;;;0.80;;
13973;SDS011;7060;43.770;4.008;2023-05-21T10:07:18;1.20;;;0.80;;
13973;SDS011;7060;43.770;4.008;2023-05-21T10:09:52;1.53;;;0.70;;
13973;SDS011;7060;43.770;4.008;2023-05-21T10:12:23;1.13;;;0.80;;
13973;SDS011;7060;43.770;4.008;2023-05-21T10:14:53;1.47;;;1.03;;
13973;SDS011;7060;43.770;4.008;2023-05-21T10:17:28;1.70;;;0.87;;
13973;SDS011;7060;43.770;4.008;2023-05-21T10:19:57;1.00;;;0.90;;
13973;SDS011;7060;43.770;4.008;2023-05-21T10:22:27;2.30;;;0.70;;
13973;SDS011;7060;43.770;4.008;2023-05-21T10:24:56;0.80;;;0.70;;
13973;SDS011;7060;43.770;4.008;2023-05-21T10:27:25;0.87;;;0.60;;
13973;SDS011;7060;43.770;4.008;2023-05-21T10:29:58;0.50;;;0.50;;
13973;SDS011;7060;43.770;4.008;2023-05-21T10:32:28;0.43;;;0.43;;
13973;SDS011;7060;43.770;4.008;2023-05-21T10:34:58;0.63;;;0.57;;
13973;SDS011;7060;43.770;4.008;2023-05-21T10:37:28;0.43;;;0.40;;
13973;SDS011;7060;43.770;4.008;2023-05-21T10:39:57;0.70;;;0.40;;
13973;SDS011;7060;43.770;4.008;2023-05-21T10:42:35;0.80;;;0.60;;
13973;SDS011;7060;43.770;4.008;2023-05-21T10:45:19;1.40;;;0.50;;
13973;SDS011;7060;43.770;4.008;2023-05-21T10:48:11;0.73;;;0.60;;
13973;SDS011;7060;43.770;4.008;2023-05-21T10:51:05;0.60;;;0.50;;
13973;SDS011;7060;43.770;4.008;2023-05-21T10:53:47;0.40;;;0.40;;
13973;SDS011;7060;43.770;4.008;2023-05-21T10:56:30;0.80;;;0.50;;
13973;SDS011;7060;43.770;4.008;2023-05-21T10:59:12;0.43;;;0.40;;
13973;SDS011;7060;43.770;4.008;2023-05-21T11:01:48;0.40;;;0.40;;
13973;SDS011;7060;43.770;4.008;2023-05-21T11:04:25;1.07;;;0.60;;
13973;SDS011;7060;43.770;4.008;2023-05-21T11:06:57;0.50;;;0.50;;
13973;SDS011;7060;43.770;4.008;2023-05-21T11:09:26;2.17;;;0.60;;
13973;SDS011;7060;43.770;4.008;2023-05-21T11:11:55;3.53;;;0.50;;
13973;SDS011;7060;43.770;4.008;2023-05-21T11:14:25;0.60;;;0.50;;
13973;SDS011;7060;43.770;4.008;2023-05-21T11:16:57;1.03;;;0.47;;
13973;SDS011;7060;43.770;4.008;2023-05-21T11:19:37;1.70;;;0.57;;
13973;SDS011;7060;43.770;4.008;2023-05-21T11:22:07;1.00;;;0.57;;
13973;SDS011;7060;43.770;4.008;2023-05-21T11:24:37;1.47;;;0.50;;
13973;SDS011;7060;43.770;4.008;2023-05-21T11:27:07;0.50;;;0.50;;
13973;SDS011;7060;43.770;4.008;2023-05-21T11:29:37;1.57;;;0.63;;
13973;SDS011;7060;43.770;4.008;2023-05-21T11:32:07;1.07;;;0.60;;
13973;SDS011;7060;43.770;4.008;2023-05-21T11:34:41;1.47;;;0.60;;
13973;SDS011;7060;43.770;4.008;2023-05-21T11:37:21;3.90;;;0.60;;
13973;SDS011;7060;43.770;4.008;2023-05-21T11:42:47;1.00;;;0.63;;
13973;SDS011;7060;43.770;4.008;2023-05-21T11:45:18;0.50;;;0.40;;
13973;SDS011;7060;43.770;4.008;2023-05-21T11:47:47;1.63;;;0.50;;
13973;SDS011;7060;43.770;4.008;2023-05-21T11:50:18;0.70;;;0.50;;
13973;SDS011;7060;43.770;4.008;2023-05-21T11:52:47;0.80;;;0.80;;
13973;SDS011;7060;43.770;4.008;2023-05-21T11:55:20;0.70;;;0.70;;
13973;SDS011;7060;43.770;4.008;2023-05-21T11:57:51;1.37;;;0.90;;
13973;SDS011;7060;43.770;4.008;2023-05-21T12:00:21;0.60;;;0.60;;
13973;SDS011;7060;43.770;4.008;2023-05-21T12:02:50;2.87;;;0.60;;
13973;SDS011;7060;43.770;4.008;2023-05-21T12:05:23;1.47;;;0.70;;
13973;SDS011;7060;43.770;4.008;2023-05-21T12:07:52;0.80;;;0.70;;
13973;SDS011;7060;43.770;4.008;2023-05-21T12:10:22;1.23;;;0.60;;
13973;SDS011;7060;43.770;4.008;2023-05-21T12:12:50;1.23;;;0.60;;
13973;SDS011;7060;43.770;4.008;2023-05-21T12:15:23;0.60;;;0.57;;
13973;SDS011;7060;43.770;4.008;2023-05-21T12:17:54;2.00;;;0.98;;
13973;SDS011;7060;43.770;4.008;2023-05-21T12:20:28;2.17;;;1.10;;
13973;SDS011;7060;43.770;4.008;2023-05-21T12:22:56;0.73;;;0.57;;
13973;SDS011;7060;43.770;4.008;2023-05-21T12:25:26;0.73;;;0.50;;
13973;SDS011;7060;43.770;4.008;2023-05-21T12:27:55;0.88;;;0.50;;
13973;SDS011;7060;43.770;4.008;2023-05-21T12:30:27;0.60;;;0.60;;
13973;SDS011;7060;43.770;4.008;2023-05-21T12:32:56;1.03;;;0.50;;
13973;SDS011;7060;43.770;4.008;2023-05-21T12:35:29;1.50;;;0.60;;
13973;SDS011;7060;43.770;4.008;2023-05-21T12:38:01;1.08;;;0.47;;
13973;SDS011;7060;43.770;4.008;2023-05-21T12:40:33;0.30;;;0.30;;
13973;SDS011;7060;43.770;4.008;2023-05-21T12:43:04;2.67;;;0.50;;
13973;SDS011;7060;43.770;4.008;2023-05-21T12:45:34;0.40;;;0.40;;
13973;SDS011;7060;43.770;4.008;2023-05-21T12:48:05;1.60;;;0.50;;
13973;SDS011;7060;43.770;4.008;2023-05-21T12:50:37;0.33;;;0.33;;
13973;SDS011;7060;43.770;4.008;2023-05-21T12:53:07;1.00;;;0.50;;
13973;SDS011;7060;43.770;4.008;2023-05-21T12:55:36;0.70;;;0.60;;
13973;SDS011;7060;43.770;4.008;2023-05-21T12:58:06;0.40;;;0.30;;
13973;SDS011;7060;43.770;4.008;2023-05-21T13:00:35;0.73;;;0.50;;
13973;SDS011;7060;43.770;4.008;2023-05-21T13:03:04;1.15;;;0.90;;
13973;SDS011;7060;43.770;4.008;2023-05-21T13:05:38;0.70;;;0.45;;
13973;SDS011;7060;43.770;4.008;2023-05-21T13:08:07;1.50;;;0.40;;
13973;SDS011;7060;43.770;4.008;2023-05-21T13:10:39;0.73;;;0.40;;
13973;SDS011;7060;43.770;4.008;2023-05-21T13:13:08;0.40;;;0.40;;
13973;SDS011;7060;43.770;4.008;2023-05-21T13:15:36;3.60;;;0.45;;
13973;SDS011;7060;43.770;4.008;2023-05-21T13:18:05;1.00;;;0.50;;
13973;SDS011;7060;43.770;4.008;2023-05-21T13:20:33;0.93;;;0.50;;
13973;SDS011;7060;43.770;4.008;2023-05-21T13:23:04;0.45;;;0.40;;
13973;SDS011;7060;43.770;4.008;2023-05-21T13:25:36;1.38;;;0.60;;
13973;SDS011;7060;43.770;4.008;2023-05-21T13:28:04;2.35;;;0.45;;
13973;SDS011;7060;43.770;4.008;2023-05-21T13:30:35;0.40;;;0.40;;
13973;SDS011;7060;43.770;4.008;2023-05-21T13:33:04;0.47;;;0.47;;
13973;SDS011;7060;43.770;4.008;2023-05-21T13:35:33;1.05;;;0.47;;
13973;SDS011;7060;43.770;4.008;2023-05-21T13:38:03;0.75;;;0.60;;
13973;SDS011;7060;43.770;4.008;2023-05-21T13:40:31;0.47;;;0.40;;
13973;SDS011;7060;43.770;4.008;2023-05-21T13:43:03;0.63;;;0.50;;
13973;SDS011;7060;43.770;4.008;2023-05-21T13:45:32;0.50;;;0.40;;
13973;SDS011;7060;43.770;4.008;2023-05-21T13:48:00;0.30;;;0.30;;
13973;SDS011;7060;43.770;4.008;2023-05-21T13:50:29;0.50;;;0.50;;
13973;SDS011;7060;43.770;4.008;2023-05-21T13:52:57;0.50;;;0.50;;
13973;SDS011;7060;43.770;4.008;2023-05-21T13:55:27;0.82;;;0.28;;
13973;SDS011;7060;43.770;4.008;2023-05-21T13:57:56;0.70;;;0.40;;
13973;SDS011;7060;43.770;4.008;2023-05-21T14:00:24;0.30;;;0.30;;
13973;SDS011;7060;43.770;4.008;2023-05-21T14:02:53;0.75;;;0.47;;
13973;SDS011;7060;43.770;4.008;2023-05-21T14:05:21;0.60;;;0.40;;
13973;SDS011;7060;43.770;4.008;2023-05-21T14:07:50;0.32;;;0.30;;
13973;SDS011;7060;43.770;4.008;2023-05-21T14:10:18;0.82;;;0.52;;
13973;SDS011;7060;43.770;4.008;2023-05-21T14:12:48;0.43;;;0.40;;
13973;SDS011;7060;43.770;4.008;2023-05-21T14:15:17;0.60;;;0.30;;
13973;SDS011;7060;43.770;4.008;2023-05-21T14:17:45;0.73;;;0.40;;
13973;SDS011;7060;43.770;4.008;2023-05-21T14:20:14;1.08;;;0.40;;
13973;SDS011;7060;43.770;4.008;2023-05-21T14:22:42;1.40;;;0.50;;
13973;SDS011;7060;43.770;4.008;2023-05-21T14:25:11;0.35;;;0.35;;
13973;SDS011;7060;43.770;4.008;2023-05-21T14:27:39;0.45;;;0.40;;
13973;SDS011;7060;43.770;4.008;2023-05-21T14:30:09;0.50;;;0.50;;
13973;SDS011;7060;43.770;4.008;2023-05-21T14:32:38;0.63;;;0.50;;
13973;SDS011;7060;43.770;4.008;2023-05-21T14:35:07;0.77;;;0.38;;
13973;SDS011;7060;43.770;4.008;2023-05-21T14:37:35;1.50;;;0.45;;
13973;SDS011;7060;43.770;4.008;2023-05-21T14:40:04;0.65;;;0.50;;
13973;SDS011;7060;43.770;4.008;2023-05-21T14:42:34;0.50;;;0.50;;
13973;SDS011;7060;43.770;4.008;2023-05-21T14:45:02;0.68;;;0.57;;
13973;SDS011;7060;43.770;4.008;2023-05-21T14:47:46;2.00;;;0.57;;
13973;SDS011;7060;43.770;4.008;2023-05-21T14:50:15;0.40;;;0.40;;
13973;SDS011;7060;43.770;4.008;2023-05-21T14:52:44;1.58;;;0.40;;
13973;SDS011;7060;43.770;4.008;2023-05-21T14:55:12;1.15;;;0.50;;
13973;SDS011;7060;43.770;4.008;2023-05-21T14:57:42;0.75;;;0.40;;
13973;SDS011;7060;43.770;4.008;2023-05-21T15:00:11;2.22;;;0.50;;
13973;SDS011;7060;43.770;4.008;2023-05-21T15:02:40;0.70;;;0.40;;
13973;SDS011;7060;43.770;4.008;2023-05-21T15:05:11;0.70;;;0.50;;
13973;SDS011;7060;43.770;4.008;2023-05-21T15:07:39;0.40;;;0.40;;
13973;SDS011;7060;43.770;4.008;2023-05-21T15:10:07;1.83;;;0.55;;
13973;SDS011;7060;43.770;4.008;2023-05-21T15:12:37;0.98;;;0.40;;
13973;SDS011;7060;43.770;4.008;2023-05-21T15:15:05;1.35;;;0.60;;
13973;SDS011;7060;43.770;4.008;2023-05-21T15:17:35;1.35;;;0.50;;
13973;SDS011;7060;43.770;4.008;2023-05-21T15:20:04;1.73;;;0.40;;
13973;SDS011;7060;43.770;4.008;2023-05-21T15:22:34;1.25;;;0.50;;
13973;SDS011;7060;43.770;4.008;2023-05-21T15:25:03;0.57;;;0.50;;